sensor_id;sensor_type;location;lat;lon;timestamp;P1;durP1;ratioP1;P2;durP2;ratioP2
50205;SDS011;36098;48.390;10.856;2023-09-12T00:00:58;6.28;;;5.43;;
50205;SDS011;36098;48.390;10.856;2023-09-12T00:03:30;6.07;;;5.30;;
50205;SDS011;36098;48.390;10.856;2023-09-12T00:05:56;6.07;;;5.07;;
50205;SDS011;36098;48.390;10.856;2023-09-12T00:08:23;6.85;;;4.85;;
50205;SDS011;36098;48.390;10.856;2023-09-12T00:11:02;6.13;;;5.18;;
50205;SDS011;36098;48.390;10.856;2023-09-12T00:13:35;5.85;;;5.05;;
50205;SDS011;36098;48.390;10.856;2023-09-12T00:16:00;6.18;;;4.85;;
50205;SDS011;36098;48.390;10.856;2023-09-12T00:18:26;5.80;;;4.78;;
50205;SDS011;36098;48.390;10.856;2023-09-12T00:20:51;5.75;;;5.10;;
50205;SDS011;36098;48.390;10.856;2023-09-12T00:23:17;5.70;;;5.00;;
50205;SDS011;36098;48.390;10.856;2023-09-12T00:25:43;5.78;;;4.85;;
50205;SDS011;36098;48.390;10.856;2023-09-12T00:28:08;6.50;;;4.60;;
50205;SDS011;36098;48.390;10.856;2023-09-12T00:30:34;5.68;;;4.88;;
50205;SDS011;36098;48.390;10.856;2023-09-12T00:32:59;6.28;;;5.03;;
50205;SDS011;36098;48.390;10.856;2023-09-12T00:35:24;5.35;;;4.78;;
50205;SDS011;36098;48.390;10.856;2023-09-12T00:37:50;5.85;;;5.07;;
50205;SDS011;36098;48.390;10.856;2023-09-12T00:40:15;6.60;;;4.82;;
50205;SDS011;36098;48.390;10.856;2023-09-12T00:42:40;5.85;;;5.00;;
50205;SDS011;36098;48.390;10.856;2023-09-12T00:45:06;6.88;;;5.10;;
50205;SDS011;36098;48.390;10.856;2023-09-12T00:47:31;5.28;;;4.55;;
50205;SDS011;36098;48.390;10.856;2023-09-12T00:49:57;5.60;;;5.00;;
50205;SDS011;36098;48.390;10.856;2023-09-12T00:52:24;6.85;;;5.03;;
50205;SDS011;36098;48.390;10.856;2023-09-12T00:54:51;5.65;;;5.03;;
50205;SDS011;36098;48.390;10.856;2023-09-12T00:57:17;5.60;;;4.80;;
50205;SDS011;36098;48.390;10.856;2023-09-12T00:59:43;5.63;;;4.95;;
50205;SDS011;36098;48.390;10.856;2023-09-12T01:02:08;6.10;;;4.65;;
50205;SDS011;36098;48.390;10.856;2023-09-12T01:04:34;5.57;;;5.07;;
50205;SDS011;36098;48.390;10.856;2023-09-12T01:07:00;5.60;;;4.90;;
50205;SDS011;36098;48.390;10.856;2023-09-12T01:09:27;6.28;;;5.28;;
50205;SDS011;36098;48.390;10.856;2023-09-12T01:11:53;6.30;;;5.07;;
50205;SDS011;36098;48.390;10.856;2023-09-12T01:14:18;6.30;;;4.82;;
50205;SDS011;36098;48.390;10.856;2023-09-12T01:16:44;5.78;;;4.90;;
50205;SDS011;36098;48.390;10.856;2023-09-12T01:19:09;5.55;;;4.90;;
50205;SDS011;36098;48.390;10.856;2023-09-12T01:30:00;6.38;;;4.57;;
50205;SDS011;36098;48.390;10.856;2023-09-12T01:32:28;7.45;;;5.15;;
50205;SDS011;36098;48.390;10.856;2023-09-12T01:34:54;6.22;;;5.18;;
50205;SDS011;36098;48.390;10.856;2023-09-12T01:37:20;6.03;;;4.70;;
50205;SDS011;36098;48.390;10.856;2023-09-12T01:39:45;5.45;;;4.75;;
50205;SDS011;36098;48.390;10.856;2023-09-12T01:42:11;6.05;;;4.72;;
50205;SDS011;36098;48.390;10.856;2023-09-12T01:44:39;6.03;;;4.60;;
50205;SDS011;36098;48.390;10.856;2023-09-12T01:47:06;5.32;;;4.60;;
50205;SDS011;36098;48.390;10.856;2023-09-12T01:49:32;6.63;;;4.63;;
50205;SDS011;36098;48.390;10.856;2023-09-12T01:51:58;6.25;;;4.80;;
50205;SDS011;36098;48.390;10.856;2023-09-12T01:54:25;5.03;;;4.53;;
50205;SDS011;36098;48.390;10.856;2023-09-12T01:56:51;6.05;;;4.60;;
50205;SDS011;36098;48.390;10.856;2023-09-12T01:59:16;5.65;;;4.75;;
50205;SDS011;36098;48.390;10.856;2023-09-12T02:01:42;6.30;;;4.78;;
50205;SDS011;36098;48.390;10.856;2023-09-12T02:04:08;5.63;;;4.90;;
50205;SDS011;36098;48.390;10.856;2023-09-12T02:06:34;5.30;;;4.80;;
50205;SDS011;36098;48.390;10.856;2023-09-12T02:09:00;5.57;;;4.97;;
50205;SDS011;36098;48.390;10.856;2023-09-12T02:11:28;4.93;;;4.30;;
50205;SDS011;36098;48.390;10.856;2023-09-12T02:13:53;5.80;;;4.82;;
50205;SDS011;36098;48.390;10.856;2023-09-12T02:16:18;6.22;;;4.72;;
50205;SDS011;36098;48.390;10.856;2023-09-12T02:18:43;4.90;;;4.22;;
50205;SDS011;36098;48.390;10.856;2023-09-12T02:21:08;5.28;;;4.78;;
50205;SDS011;36098;48.390;10.856;2023-09-12T02:23:34;5.00;;;4.50;;
50205;SDS011;36098;48.390;10.856;2023-09-12T02:25:59;6.47;;;4.80;;
50205;SDS011;36098;48.390;10.856;2023-09-12T02:28:24;5.50;;;4.68;;
50205;SDS011;36098;48.390;10.856;2023-09-12T02:30:50;5.55;;;4.43;;
50205;SDS011;36098;48.390;10.856;2023-09-12T02:33:15;5.65;;;4.78;;
50205;SDS011;36098;48.390;10.856;2023-09-12T02:35:40;5.68;;;4.53;;
50205;SDS011;36098;48.390;10.856;2023-09-12T02:38:05;5.50;;;4.55;;
50205;SDS011;36098;48.390;10.856;2023-09-12T02:40:31;4.63;;;4.18;;
50205;SDS011;36098;48.390;10.856;2023-09-12T02:42:56;5.05;;;4.55;;
50205;SDS011;36098;48.390;10.856;2023-09-12T02:45:21;5.22;;;4.55;;
50205;SDS011;36098;48.390;10.856;2023-09-12T02:47:46;5.57;;;4.75;;
50205;SDS011;36098;48.390;10.856;2023-09-12T02:50:12;5.15;;;4.53;;
50205;SDS011;36098;48.390;10.856;2023-09-12T02:52:37;5.03;;;4.53;;
50205;SDS011;36098;48.390;10.856;2023-09-12T02:55:02;5.32;;;4.57;;
50205;SDS011;36098;48.390;10.856;2023-09-12T02:57:27;5.18;;;4.68;;
50205;SDS011;36098;48.390;10.856;2023-09-12T02:59:53;5.13;;;4.40;;
50205;SDS011;36098;48.390;10.856;2023-09-12T03:02:18;5.35;;;4.57;;
50205;SDS011;36098;48.390;10.856;2023-09-12T03:04:43;5.03;;;4.47;;
50205;SDS011;36098;48.390;10.856;2023-09-12T03:07:08;5.18;;;4.50;;
50205;SDS011;36098;48.390;10.856;2023-09-12T03:09:34;5.38;;;4.47;;
50205;SDS011;36098;48.390;10.856;2023-09-12T03:12:02;5.85;;;4.10;;
50205;SDS011;36098;48.390;10.856;2023-09-12T03:14:28;5.55;;;4.60;;
50205;SDS011;36098;48.390;10.856;2023-09-12T03:16:53;5.30;;;4.55;;
50205;SDS011;36098;48.390;10.856;2023-09-12T03:19:18;5.10;;;4.60;;
50205;SDS011;36098;48.390;10.856;2023-09-12T03:21:44;5.78;;;4.90;;
50205;SDS011;36098;48.390;10.856;2023-09-12T03:24:09;5.40;;;4.28;;
50205;SDS011;36098;48.390;10.856;2023-09-12T03:26:35;5.90;;;4.90;;
50205;SDS011;36098;48.390;10.856;2023-09-12T03:29:01;5.97;;;4.50;;
50205;SDS011;36098;48.390;10.856;2023-09-12T03:31:27;5.10;;;4.60;;
50205;SDS011;36098;48.390;10.856;2023-09-12T03:33:53;5.18;;;4.60;;
50205;SDS011;36098;48.390;10.856;2023-09-12T03:36:19;5.57;;;4.80;;
50205;SDS011;36098;48.390;10.856;2023-09-12T03:38:44;5.30;;;4.65;;
50205;SDS011;36098;48.390;10.856;2023-09-12T03:41:09;4.88;;;4.35;;
50205;SDS011;36098;48.390;10.856;2023-09-12T03:43:36;5.05;;;4.50;;
50205;SDS011;36098;48.390;10.856;2023-09-12T03:46:01;4.90;;;4.40;;
50205;SDS011;36098;48.390;10.856;2023-09-12T03:48:28;4.75;;;4.25;;
50205;SDS011;36098;48.390;10.856;2023-09-12T03:50:55;4.60;;;4.15;;
50205;SDS011;36098;48.390;10.856;2023-09-12T03:53:21;5.28;;;4.57;;
50205;SDS011;36098;48.390;10.856;2023-09-12T03:55:46;4.97;;;4.47;;
50205;SDS011;36098;48.390;10.856;2023-09-12T03:58:11;6.32;;;4.80;;
50205;SDS011;36098;48.390;10.856;2023-09-12T04:00:39;5.00;;;4.47;;
50205;SDS011;36098;48.390;10.856;2023-09-12T04:03:04;5.72;;;4.50;;
50205;SDS011;36098;48.390;10.856;2023-09-12T04:05:29;4.93;;;4.22;;
50205;SDS011;36098;48.390;10.856;2023-09-12T04:07:54;5.88;;;4.60;;
50205;SDS011;36098;48.390;10.856;2023-09-12T04:10:20;5.13;;;4.50;;
50205;SDS011;36098;48.390;10.856;2023-09-12T04:12:46;6.32;;;4.60;;
50205;SDS011;36098;48.390;10.856;2023-09-12T04:15:11;5.20;;;4.70;;
50205;SDS011;36098;48.390;10.856;2023-09-12T04:17:36;5.07;;;4.57;;
50205;SDS011;36098;48.390;10.856;2023-09-12T04:20:02;4.90;;;4.40;;
50205;SDS011;36098;48.390;10.856;2023-09-12T04:22:27;5.35;;;4.47;;
50205;SDS011;36098;48.390;10.856;2023-09-12T04:24:53;5.65;;;4.82;;
50205;SDS011;36098;48.390;10.856;2023-09-12T04:27:19;4.95;;;4.25;;
50205;SDS011;36098;48.390;10.856;2023-09-12T04:29:44;5.13;;;4.53;;
50205;SDS011;36098;48.390;10.856;2023-09-12T04:32:09;5.45;;;4.68;;
50205;SDS011;36098;48.390;10.856;2023-09-12T04:34:34;4.93;;;4.30;;
50205;SDS011;36098;48.390;10.856;2023-09-12T04:37:00;5.20;;;4.63;;
50205;SDS011;36098;48.390;10.856;2023-09-12T04:39:27;5.68;;;4.90;;
50205;SDS011;36098;48.390;10.856;2023-09-12T04:41:53;7.38;;;4.55;;
50205;SDS011;36098;48.390;10.856;2023-09-12T04:44:18;6.57;;;4.85;;
50205;SDS011;36098;48.390;10.856;2023-09-12T04:46:43;9.18;;;5.68;;
50205;SDS011;36098;48.390;10.856;2023-09-12T04:49:09;6.95;;;5.43;;
50205;SDS011;36098;48.390;10.856;2023-09-12T04:51:34;8.35;;;5.85;;
50205;SDS011;36098;48.390;10.856;2023-09-12T04:53:59;7.53;;;5.53;;
50205;SDS011;36098;48.390;10.856;2023-09-12T04:56:24;7.75;;;5.40;;
50205;SDS011;36098;48.390;10.856;2023-09-12T04:58:50;7.63;;;5.45;;
50205;SDS011;36098;48.390;10.856;2023-09-12T05:01:15;7.43;;;5.50;;
50205;SDS011;36098;48.390;10.856;2023-09-12T05:03:41;7.22;;;5.70;;
50205;SDS011;36098;48.390;10.856;2023-09-12T05:06:06;6.32;;;5.35;;
50205;SDS011;36098;48.390;10.856;2023-09-12T05:08:32;9.27;;;7.07;;
50205;SDS011;36098;48.390;10.856;2023-09-12T05:10:57;13.90;;;8.07;;
50205;SDS011;36098;48.390;10.856;2023-09-12T05:13:22;16.52;;;9.15;;
50205;SDS011;36098;48.390;10.856;2023-09-12T05:15:48;13.98;;;8.57;;
50205;SDS011;36098;48.390;10.856;2023-09-12T05:18:14;13.15;;;7.90;;
50205;SDS011;36098;48.390;10.856;2023-09-12T05:20:39;12.23;;;8.73;;
50205;SDS011;36098;48.390;10.856;2023-09-12T05:23:04;15.52;;;8.60;;
50205;SDS011;36098;48.390;10.856;2023-09-12T05:25:30;11.98;;;8.20;;
50205;SDS011;36098;48.390;10.856;2023-09-12T05:27:56;11.30;;;8.20;;
50205;SDS011;36098;48.390;10.856;2023-09-12T05:30:21;10.43;;;8.15;;
50205;SDS011;36098;48.390;10.856;2023-09-12T05:32:47;10.55;;;7.90;;
50205;SDS011;36098;48.390;10.856;2023-09-12T05:35:12;13.05;;;8.38;;
50205;SDS011;36098;48.390;10.856;2023-09-12T05:37:37;11.65;;;8.43;;
50205;SDS011;36098;48.390;10.856;2023-09-12T05:40:03;16.08;;;9.00;;
50205;SDS011;36098;48.390;10.856;2023-09-12T05:42:29;12.65;;;8.27;;
50205;SDS011;36098;48.390;10.856;2023-09-12T05:44:54;12.68;;;8.25;;
50205;SDS011;36098;48.390;10.856;2023-09-12T05:47:20;15.40;;;8.77;;
50205;SDS011;36098;48.390;10.856;2023-09-12T05:49:45;14.70;;;9.02;;
50205;SDS011;36098;48.390;10.856;2023-09-12T05:52:11;10.32;;;7.85;;
50205;SDS011;36098;48.390;10.856;2023-09-12T05:54:36;12.05;;;8.43;;
50205;SDS011;36098;48.390;10.856;2023-09-12T05:57:03;13.00;;;8.35;;
50205;SDS011;36098;48.390;10.856;2023-09-12T05:59:29;15.05;;;8.13;;
50205;SDS011;36098;48.390;10.856;2023-09-12T06:01:54;13.07;;;8.30;;
50205;SDS011;36098;48.390;10.856;2023-09-12T06:04:20;11.68;;;7.50;;
50205;SDS011;36098;48.390;10.856;2023-09-12T06:06:45;14.20;;;8.40;;
50205;SDS011;36098;48.390;10.856;2023-09-12T06:09:11;11.73;;;8.27;;
50205;SDS011;36098;48.390;10.856;2023-09-12T06:11:36;10.73;;;7.90;;
50205;SDS011;36098;48.390;10.856;2023-09-12T06:14:01;15.40;;;8.00;;
50205;SDS011;36098;48.390;10.856;2023-09-12T06:16:27;11.07;;;7.90;;
50205;SDS011;36098;48.390;10.856;2023-09-12T06:18:52;13.63;;;8.00;;
50205;SDS011;36098;48.390;10.856;2023-09-12T06:21:18;12.25;;;8.30;;
50205;SDS011;36098;48.390;10.856;2023-09-12T06:23:46;19.17;;;7.95;;
50205;SDS011;36098;48.390;10.856;2023-09-12T06:26:31;10.80;;;8.18;;
50205;SDS011;36098;48.390;10.856;2023-09-12T06:28:56;10.95;;;8.05;;
50205;SDS011;36098;48.390;10.856;2023-09-12T06:31:22;12.40;;;7.72;;
50205;SDS011;36098;48.390;10.856;2023-09-12T06:33:48;13.07;;;7.78;;
50205;SDS011;36098;48.390;10.856;2023-09-12T06:36:13;10.80;;;7.53;;
50205;SDS011;36098;48.390;10.856;2023-09-12T06:38:38;11.10;;;7.68;;
50205;SDS011;36098;48.390;10.856;2023-09-12T06:41:03;11.15;;;7.43;;
50205;SDS011;36098;48.390;10.856;2023-09-12T06:43:29;9.77;;;7.60;;
50205;SDS011;36098;48.390;10.856;2023-09-12T06:45:55;10.10;;;7.47;;
50205;SDS011;36098;48.390;10.856;2023-09-12T06:48:21;10.13;;;7.10;;
50205;SDS011;36098;48.390;10.856;2023-09-12T06:50:46;11.55;;;7.13;;
50205;SDS011;36098;48.390;10.856;2023-09-12T06:53:11;9.73;;;7.13;;
50205;SDS011;36098;48.390;10.856;2023-09-12T06:55:36;10.38;;;7.00;;
50205;SDS011;36098;48.390;10.856;2023-09-12T06:58:02;12.60;;;7.00;;
50205;SDS011;36098;48.390;10.856;2023-09-12T07:00:28;9.52;;;7.00;;
50205;SDS011;36098;48.390;10.856;2023-09-12T07:02:53;9.85;;;7.13;;
50205;SDS011;36098;48.390;10.856;2023-09-12T07:05:19;11.57;;;7.47;;
50205;SDS011;36098;48.390;10.856;2023-09-12T07:07:44;11.05;;;7.32;;
50205;SDS011;36098;48.390;10.856;2023-09-12T07:10:10;8.57;;;6.70;;
50205;SDS011;36098;48.390;10.856;2023-09-12T07:12:35;7.90;;;6.72;;
50205;SDS011;36098;48.390;10.856;2023-09-12T07:15:01;9.50;;;6.90;;
50205;SDS011;36098;48.390;10.856;2023-09-12T07:17:27;10.32;;;6.80;;
50205;SDS011;36098;48.390;10.856;2023-09-12T07:19:53;8.70;;;6.60;;
50205;SDS011;36098;48.390;10.856;2023-09-12T07:22:18;9.48;;;6.85;;
50205;SDS011;36098;48.390;10.856;2023-09-12T07:24:43;7.80;;;6.72;;
50205;SDS011;36098;48.390;10.856;2023-09-12T07:27:09;8.93;;;6.50;;
50205;SDS011;36098;48.390;10.856;2023-09-12T07:29:34;11.65;;;6.32;;
50205;SDS011;36098;48.390;10.856;2023-09-12T07:31:59;8.38;;;6.88;;
50205;SDS011;36098;48.390;10.856;2023-09-12T07:34:24;8.00;;;6.57;;
50205;SDS011;36098;48.390;10.856;2023-09-12T07:36:50;9.10;;;6.65;;
50205;SDS011;36098;48.390;10.856;2023-09-12T07:39:19;9.70;;;6.82;;
50205;SDS011;36098;48.390;10.856;2023-09-12T07:41:44;9.20;;;6.95;;
50205;SDS011;36098;48.390;10.856;2023-09-12T07:44:10;8.25;;;6.03;;
50205;SDS011;36098;48.390;10.856;2023-09-12T07:46:37;11.32;;;6.85;;
50205;SDS011;36098;48.390;10.856;2023-09-12T07:49:02;8.43;;;6.20;;
50205;SDS011;36098;48.390;10.856;2023-09-12T07:51:28;8.07;;;6.43;;
50205;SDS011;36098;48.390;10.856;2023-09-12T07:53:53;8.90;;;6.47;;
50205;SDS011;36098;48.390;10.856;2023-09-12T07:56:18;10.68;;;6.65;;
50205;SDS011;36098;48.390;10.856;2023-09-12T07:58:44;7.18;;;6.18;;
50205;SDS011;36098;48.390;10.856;2023-09-12T08:01:09;7.47;;;6.40;;
50205;SDS011;36098;48.390;10.856;2023-09-12T08:03:35;7.18;;;6.10;;
50205;SDS011;36098;48.390;10.856;2023-09-12T08:06:01;6.90;;;5.82;;
50205;SDS011;36098;48.390;10.856;2023-09-12T08:08:27;7.10;;;5.82;;
50205;SDS011;36098;48.390;10.856;2023-09-12T08:10:53;7.50;;;5.85;;
50205;SDS011;36098;48.390;10.856;2023-09-12T08:13:18;7.60;;;6.50;;
50205;SDS011;36098;48.390;10.856;2023-09-12T08:15:43;8.93;;;6.82;;
50205;SDS011;36098;48.390;10.856;2023-09-12T08:18:09;9.40;;;6.18;;
50205;SDS011;36098;48.390;10.856;2023-09-12T08:20:35;7.20;;;6.22;;
50205;SDS011;36098;48.390;10.856;2023-09-12T08:23:00;7.65;;;5.95;;
50205;SDS011;36098;48.390;10.856;2023-09-12T08:25:25;9.52;;;6.18;;
50205;SDS011;36098;48.390;10.856;2023-09-12T08:27:52;6.68;;;5.88;;
50205;SDS011;36098;48.390;10.856;2023-09-12T08:30:17;7.03;;;6.07;;
50205;SDS011;36098;48.390;10.856;2023-09-12T08:32:42;6.95;;;5.80;;
50205;SDS011;36098;48.390;10.856;2023-09-12T08:35:10;6.80;;;5.70;;
50205;SDS011;36098;48.390;10.856;2023-09-12T08:37:39;7.85;;;5.90;;
50205;SDS011;36098;48.390;10.856;2023-09-12T08:40:07;7.38;;;6.30;;
50205;SDS011;36098;48.390;10.856;2023-09-12T08:42:41;8.82;;;6.60;;
50205;SDS011;36098;48.390;10.856;2023-09-12T08:45:18;7.45;;;5.55;;
50205;SDS011;36098;48.390;10.856;2023-09-12T08:47:45;8.55;;;6.07;;
50205;SDS011;36098;48.390;10.856;2023-09-12T08:50:15;7.28;;;6.20;;
50205;SDS011;36098;48.390;10.856;2023-09-12T08:52:41;9.52;;;6.32;;
50205;SDS011;36098;48.390;10.856;2023-09-12T08:55:08;7.80;;;6.40;;
50205;SDS011;36098;48.390;10.856;2023-09-12T08:57:35;7.88;;;6.22;;
50205;SDS011;36098;48.390;10.856;2023-09-12T09:00:02;7.22;;;6.05;;
50205;SDS011;36098;48.390;10.856;2023-09-12T09:02:36;8.80;;;6.65;;
50205;SDS011;36098;48.390;10.856;2023-09-12T09:05:03;10.55;;;6.63;;
50205;SDS011;36098;48.390;10.856;2023-09-12T09:07:31;8.10;;;6.40;;
50205;SDS011;36098;48.390;10.856;2023-09-12T09:09:58;7.30;;;6.43;;
50205;SDS011;36098;48.390;10.856;2023-09-12T09:12:26;6.93;;;6.03;;
50205;SDS011;36098;48.390;10.856;2023-09-12T09:14:52;7.00;;;6.30;;
50205;SDS011;36098;48.390;10.856;2023-09-12T09:17:18;8.57;;;6.72;;
50205;SDS011;36098;48.390;10.856;2023-09-12T09:19:44;9.82;;;6.88;;
50205;SDS011;36098;48.390;10.856;2023-09-12T09:22:10;8.93;;;6.57;;
50205;SDS011;36098;48.390;10.856;2023-09-12T09:24:35;9.10;;;6.70;;
50205;SDS011;36098;48.390;10.856;2023-09-12T09:27:01;7.30;;;6.38;;
50205;SDS011;36098;48.390;10.856;2023-09-12T09:29:27;8.75;;;6.70;;
50205;SDS011;36098;48.390;10.856;2023-09-12T09:32:02;8.60;;;7.10;;
50205;SDS011;36098;48.390;10.856;2023-09-12T09:34:30;8.43;;;6.82;;
50205;SDS011;36098;48.390;10.856;2023-09-12T09:36:57;7.47;;;6.68;;
50205;SDS011;36098;48.390;10.856;2023-09-12T09:39:23;9.48;;;7.03;;
50205;SDS011;36098;48.390;10.856;2023-09-12T09:41:51;12.35;;;7.60;;
50205;SDS011;36098;48.390;10.856;2023-09-12T09:44:23;10.18;;;6.78;;
50205;SDS011;36098;48.390;10.856;2023-09-12T09:46:55;10.93;;;6.93;;
50205;SDS011;36098;48.390;10.856;2023-09-12T09:49:27;10.18;;;6.97;;
50205;SDS011;36098;48.390;10.856;2023-09-12T09:51:55;7.32;;;6.63;;
50205;SDS011;36098;48.390;10.856;2023-09-12T09:54:23;9.07;;;6.32;;
50205;SDS011;36098;48.390;10.856;2023-09-12T09:56:50;9.15;;;6.72;;
50205;SDS011;36098;48.390;10.856;2023-09-12T09:59:23;10.75;;;7.20;;
50205;SDS011;36098;48.390;10.856;2023-09-12T10:01:50;13.52;;;7.18;;
50205;SDS011;36098;48.390;10.856;2023-09-12T10:04:18;12.63;;;6.93;;
50205;SDS011;36098;48.390;10.856;2023-09-12T10:06:44;11.73;;;6.80;;
50205;SDS011;36098;48.390;10.856;2023-09-12T10:09:12;10.88;;;7.10;;
50205;SDS011;36098;48.390;10.856;2023-09-12T10:11:39;10.07;;;7.10;;
50205;SDS011;36098;48.390;10.856;2023-09-12T10:14:06;10.38;;;6.70;;
50205;SDS011;36098;48.390;10.856;2023-09-12T10:16:33;9.48;;;6.95;;
50205;SDS011;36098;48.390;10.856;2023-09-12T10:19:47;9.05;;;6.68;;
50205;SDS011;36098;48.390;10.856;2023-09-12T10:24:37;9.07;;;6.65;;
50205;SDS011;36098;48.390;10.856;2023-09-12T10:27:05;10.70;;;7.00;;
50205;SDS011;36098;48.390;10.856;2023-09-12T10:29:31;10.60;;;6.90;;
50205;SDS011;36098;48.390;10.856;2023-09-12T10:31:56;9.27;;;6.68;;
50205;SDS011;36098;48.390;10.856;2023-09-12T10:34:22;11.82;;;7.50;;
50205;SDS011;36098;48.390;10.856;2023-09-12T10:36:50;9.05;;;6.60;;
50205;SDS011;36098;48.390;10.856;2023-09-12T10:39:16;8.25;;;6.90;;
50205;SDS011;36098;48.390;10.856;2023-09-12T10:41:44;10.25;;;6.57;;
50205;SDS011;36098;48.390;10.856;2023-09-12T10:44:11;9.52;;;7.07;;
50205;SDS011;36098;48.390;10.856;2023-09-12T10:46:40;11.93;;;6.68;;
50205;SDS011;36098;48.390;10.856;2023-09-12T10:49:07;8.00;;;6.60;;
50205;SDS011;36098;48.390;10.856;2023-09-12T10:51:34;12.80;;;6.95;;
50205;SDS011;36098;48.390;10.856;2023-09-12T10:54:03;10.95;;;7.30;;
50205;SDS011;36098;48.390;10.856;2023-09-12T10:56:29;11.98;;;7.30;;
50205;SDS011;36098;48.390;10.856;2023-09-12T11:01:29;9.68;;;6.78;;
50205;SDS011;36098;48.390;10.856;2023-09-12T11:03:55;8.00;;;6.90;;
50205;SDS011;36098;48.390;10.856;2023-09-12T11:06:30;9.05;;;7.13;;
50205;SDS011;36098;48.390;10.856;2023-09-12T11:11:48;15.63;;;8.85;;
50205;SDS011;36098;48.390;10.856;2023-09-12T11:14:19;18.85;;;9.30;;
50205;SDS011;36098;48.390;10.856;2023-09-12T11:19:45;14.70;;;8.95;;
50205;SDS011;36098;48.390;10.856;2023-09-12T11:24:56;12.38;;;7.90;;
50205;SDS011;36098;48.390;10.856;2023-09-12T11:27:23;15.40;;;8.95;;
50205;SDS011;36098;48.390;10.856;2023-09-12T11:29:52;13.52;;;8.25;;
50205;SDS011;36098;48.390;10.856;2023-09-12T11:32:25;12.82;;;7.35;;
50205;SDS011;36098;48.390;10.856;2023-09-12T11:34:55;13.38;;;8.20;;
50205;SDS011;36098;48.390;10.856;2023-09-12T11:37:24;14.75;;;8.18;;
50205;SDS011;36098;48.390;10.856;2023-09-12T11:39:54;14.05;;;8.02;;
50205;SDS011;36098;48.390;10.856;2023-09-12T11:42:26;12.38;;;8.05;;
50205;SDS011;36098;48.390;10.856;2023-09-12T11:44:57;13.23;;;7.95;;
50205;SDS011;36098;48.390;10.856;2023-09-12T11:47:27;15.90;;;8.15;;
50205;SDS011;36098;48.390;10.856;2023-09-12T11:49:57;15.23;;;8.00;;
50205;SDS011;36098;48.390;10.856;2023-09-12T11:52:25;9.88;;;7.47;;
50205;SDS011;36098;48.390;10.856;2023-09-12T11:54:52;10.38;;;7.80;;
50205;SDS011;36098;48.390;10.856;2023-09-12T11:57:18;138.73;;;44.53;;
50205;SDS011;36098;48.390;10.856;2023-09-12T11:59:44;416.17;;;157.18;;
50205;SDS011;36098;48.390;10.856;2023-09-12T12:02:13;165.80;;;58.10;;
50205;SDS011;36098;48.390;10.856;2023-09-12T12:04:42;84.22;;;30.75;;
50205;SDS011;36098;48.390;10.856;2023-09-12T12:07:10;49.10;;;19.05;;
50205;SDS011;36098;48.390;10.856;2023-09-12T12:09:36;52.70;;;21.80;;
50205;SDS011;36098;48.390;10.856;2023-09-12T12:12:08;56.67;;;22.60;;
50205;SDS011;36098;48.390;10.856;2023-09-12T12:14:35;67.63;;;23.27;;
50205;SDS011;36098;48.390;10.856;2023-09-12T12:17:08;46.08;;;19.02;;
50205;SDS011;36098;48.390;10.856;2023-09-12T12:19:44;53.17;;;19.50;;
50205;SDS011;36098;48.390;10.856;2023-09-12T12:22:11;37.78;;;15.93;;
50205;SDS011;36098;48.390;10.856;2023-09-12T12:24:45;34.58;;;14.15;;
50205;SDS011;36098;48.390;10.856;2023-09-12T12:27:11;36.22;;;16.65;;
50205;SDS011;36098;48.390;10.856;2023-09-12T12:29:40;31.85;;;13.65;;
50205;SDS011;36098;48.390;10.856;2023-09-12T12:32:05;32.45;;;14.63;;
50205;SDS011;36098;48.390;10.856;2023-09-12T12:34:31;29.95;;;13.48;;
50205;SDS011;36098;48.390;10.856;2023-09-12T12:36:57;30.00;;;12.60;;
50205;SDS011;36098;48.390;10.856;2023-09-12T12:39:22;31.98;;;13.82;;
50205;SDS011;36098;48.390;10.856;2023-09-12T12:41:49;24.08;;;11.68;;
50205;SDS011;36098;48.390;10.856;2023-09-12T12:44:17;29.58;;;11.60;;
50205;SDS011;36098;48.390;10.856;2023-09-12T12:46:50;25.30;;;11.15;;
50205;SDS011;36098;48.390;10.856;2023-09-12T12:49:19;21.48;;;11.15;;
50205;SDS011;36098;48.390;10.856;2023-09-12T12:51:45;22.45;;;10.43;;
50205;SDS011;36098;48.390;10.856;2023-09-12T12:54:12;20.23;;;10.30;;
50205;SDS011;36098;48.390;10.856;2023-09-12T12:56:39;22.58;;;9.70;;
50205;SDS011;36098;48.390;10.856;2023-09-12T12:59:06;26.77;;;10.60;;
50205;SDS011;36098;48.390;10.856;2023-09-12T13:01:37;27.60;;;10.43;;
50205;SDS011;36098;48.390;10.856;2023-09-12T13:04:07;19.80;;;9.43;;
50205;SDS011;36098;48.390;10.856;2023-09-12T13:06:33;19.88;;;8.50;;
50205;SDS011;36098;48.390;10.856;2023-09-12T13:09:01;17.40;;;8.10;;
50205;SDS011;36098;48.390;10.856;2023-09-12T13:11:30;14.88;;;8.10;;
50205;SDS011;36098;48.390;10.856;2023-09-12T13:13:55;15.90;;;7.65;;
50205;SDS011;36098;48.390;10.856;2023-09-12T13:16:21;17.17;;;8.30;;
50205;SDS011;36098;48.390;10.856;2023-09-12T13:18:47;21.42;;;9.05;;
50205;SDS011;36098;48.390;10.856;2023-09-12T13:21:12;16.08;;;7.90;;
50205;SDS011;36098;48.390;10.856;2023-09-12T13:23:37;15.43;;;7.95;;
50205;SDS011;36098;48.390;10.856;2023-09-12T13:26:03;15.07;;;7.40;;
50205;SDS011;36098;48.390;10.856;2023-09-12T13:28:30;19.73;;;7.55;;
50205;SDS011;36098;48.390;10.856;2023-09-12T13:30:55;12.25;;;6.57;;
50205;SDS011;36098;48.390;10.856;2023-09-12T13:33:22;13.10;;;7.82;;
50205;SDS011;36098;48.390;10.856;2023-09-12T13:35:50;18.17;;;7.70;;
50205;SDS011;36098;48.390;10.856;2023-09-12T13:38:16;13.55;;;7.18;;
50205;SDS011;36098;48.390;10.856;2023-09-12T13:40:44;11.40;;;6.55;;
50205;SDS011;36098;48.390;10.856;2023-09-12T13:43:10;11.88;;;6.30;;
50205;SDS011;36098;48.390;10.856;2023-09-12T13:45:36;15.15;;;7.72;;
50205;SDS011;36098;48.390;10.856;2023-09-12T13:48:02;12.77;;;6.65;;
50205;SDS011;36098;48.390;10.856;2023-09-12T13:50:29;13.35;;;7.05;;
50205;SDS011;36098;48.390;10.856;2023-09-12T13:52:55;12.60;;;6.43;;
50205;SDS011;36098;48.390;10.856;2023-09-12T13:55:21;12.20;;;6.50;;
50205;SDS011;36098;48.390;10.856;2023-09-12T13:57:47;11.32;;;6.63;;
50205;SDS011;36098;48.390;10.856;2023-09-12T14:00:12;9.27;;;6.72;;
50205;SDS011;36098;48.390;10.856;2023-09-12T14:02:38;11.70;;;6.32;;
50205;SDS011;36098;48.390;10.856;2023-09-12T14:05:03;10.10;;;6.43;;
50205;SDS011;36098;48.390;10.856;2023-09-12T14:07:28;8.77;;;6.18;;
50205;SDS011;36098;48.390;10.856;2023-09-12T14:09:54;10.63;;;6.03;;
50205;SDS011;36098;48.390;10.856;2023-09-12T14:12:22;9.43;;;5.90;;
50205;SDS011;36098;48.390;10.856;2023-09-12T14:14:47;11.38;;;6.57;;
50205;SDS011;36098;48.390;10.856;2023-09-12T14:17:13;10.65;;;6.07;;
50205;SDS011;36098;48.390;10.856;2023-09-12T14:19:39;8.70;;;5.47;;
50205;SDS011;36098;48.390;10.856;2023-09-12T14:22:04;11.45;;;6.00;;
50205;SDS011;36098;48.390;10.856;2023-09-12T14:24:29;14.98;;;6.25;;
50205;SDS011;36098;48.390;10.856;2023-09-12T14:26:55;12.90;;;6.43;;
50205;SDS011;36098;48.390;10.856;2023-09-12T14:29:20;11.73;;;5.97;;
50205;SDS011;36098;48.390;10.856;2023-09-12T14:31:45;12.90;;;6.55;;
50205;SDS011;36098;48.390;10.856;2023-09-12T14:34:16;13.60;;;6.15;;
50205;SDS011;36098;48.390;10.856;2023-09-12T14:36:41;11.98;;;6.20;;
50205;SDS011;36098;48.390;10.856;2023-09-12T14:39:07;13.90;;;5.88;;
50205;SDS011;36098;48.390;10.856;2023-09-12T14:41:32;12.93;;;6.13;;
50205;SDS011;36098;48.390;10.856;2023-09-12T14:43:57;10.73;;;6.55;;
50205;SDS011;36098;48.390;10.856;2023-09-12T14:46:23;10.07;;;5.50;;